Aviation Digital Data Service (ADDS)

Output produced by METARs form (1731 UTC 24 June 2019)
found at http://www.aviationweather.gov/metar/data/
 
Forecast for: VLSK (SAVANNAKHET(CV/M, LA)
Text: TAF VLSK 241100Z 2412/2512 18004KT 7000 SCT020 SCT100
Forecast period: 1200 UTC 24 June 2019 to 1200 UTC 25 June 2019
Forecast type: FROM: standard forecast or significant change
Winds: from the S (180 degrees) at 5 MPH (4 knots; 2.1 m/s)
Visibility: 4 miles (7 km)
Ceiling: at least 12,000 feet AGL
Clouds: scattered clouds at 2000 feet AGL
scattered clouds at 10000 feet AGL
Weather: no significant weather forecast for this period
Text: TEMPO 2414/2420 4000 BR SCT040 BKN100
Forecast period: 1400 to 2000 UTC 24 June 2019
Forecast type: TEMPORARY: The following changes expected for less than half the time period
Visibility: 2.49 miles (4.01 km)
Ceiling: 10000 feet AGL
Clouds: scattered clouds at 4000 feet AGL
broken clouds at 10000 feet AGL
Weather: BR  (mist)